createdAt,value
2019-04-27T00:00:17.327Z,3.70
2019-04-27T00:11:06.911Z,5.40
2019-04-27T00:21:43.031Z,5.70
2019-04-27T00:32:24.870Z,5.30
2019-04-27T00:43:09.470Z,4.70
2019-04-27T00:53:55.112Z,4.50
2019-04-27T01:04:28.820Z,5.30
2019-04-27T01:15:13.581Z,4.90
2019-04-27T01:25:59.396Z,4.10
2019-04-27T01:36:39.553Z,4.70
2019-04-27T01:47:24.625Z,3.70
2019-04-27T01:58:10.674Z,3.50
2019-04-27T02:08:50.652Z,3.70
2019-04-27T02:19:32.756Z,3.80
2019-04-27T02:30:16.420Z,4.30
2019-04-27T02:40:51.551Z,3.80
2019-04-27T02:51:34.833Z,5.50
2019-04-27T03:02:19.653Z,5.00
2019-04-27T03:13:01.887Z,5.00
2019-04-27T03:23:43.766Z,8.30
2019-04-27T03:34:26.540Z,6.80
2019-04-27T03:45:11.558Z,7.60
2019-04-27T03:55:52.466Z,6.90
2019-04-27T04:06:36.466Z,5.90
2019-04-27T04:17:20.383Z,5.90
2019-04-27T04:28:02.839Z,5.50
2019-04-27T04:38:43.757Z,5.90
2019-04-27T04:49:22.984Z,8.30
2019-04-27T05:00:06.975Z,7.10
2019-04-27T05:10:50.945Z,7.10
2019-04-27T05:21:32.564Z,6.40
2019-04-27T05:32:15.622Z,6.80
2019-04-27T05:42:59.886Z,5.60
2019-04-27T05:53:44.950Z,7.10
2019-04-27T06:04:29.192Z,6.00
2019-04-27T06:15:12.672Z,5.10
2019-04-27T06:26:01.446Z,4.10
2019-04-27T06:36:41.828Z,5.10
2019-04-27T06:47:24.574Z,5.10
2019-04-27T06:58:06.690Z,6.80
2019-04-27T07:08:51.778Z,6.00
2019-04-27T07:19:29.726Z,6.20
2019-04-27T07:30:14.967Z,6.80
2019-04-27T07:40:58.736Z,11.50
2019-04-27T07:51:40.630Z,9.50
2019-04-27T08:02:23.666Z,11.60
2019-04-27T08:13:15.928Z,9.60
2019-04-27T08:23:45.724Z,10.60
2019-04-27T08:34:23.799Z,9.70
2019-04-27T08:45:07.017Z,4.60
2019-04-27T08:55:52.792Z,4.60
2019-04-27T09:06:31.192Z,6.00
2019-04-27T09:17:14.784Z,4.40
2019-04-27T09:27:52.881Z,4.80
2019-04-27T09:38:35.762Z,3.90
2019-04-27T09:49:17.815Z,2.60
2019-04-27T09:59:59.096Z,2.50
2019-04-27T10:10:42.001Z,2.70
2019-04-27T10:21:23.770Z,0.90
2019-04-27T10:32:09.032Z,2.60
2019-04-27T10:42:46.806Z,4.00
2019-04-27T10:53:19.795Z,6.40
2019-04-27T11:03:55.523Z,6.50
2019-04-27T11:14:36.050Z,8.20
2019-04-27T11:25:17.103Z,6.50
2019-04-27T11:36:00.089Z,7.50
2019-04-27T11:46:41.136Z,8.50
2019-04-27T11:57:24.376Z,7.80
2019-04-27T12:08:02.767Z,8.60
2019-04-27T12:18:44.033Z,8.90
2019-04-27T12:29:24.184Z,5.10
2019-04-27T12:39:55.516Z,2.50
2019-04-27T12:50:37.148Z,3.40
2019-04-27T13:01:20.103Z,3.40
2019-04-27T13:12:04.005Z,3.30
2019-04-27T13:22:45.938Z,6.70
2019-04-27T13:33:30.103Z,6.90
2019-04-27T13:44:16.032Z,7.70
2019-04-27T13:54:50.523Z,7.40
2019-04-27T14:05:31.381Z,6.30
2019-04-27T14:16:06.346Z,7.40
2019-04-27T14:26:48.600Z,5.10
2019-04-27T14:37:28.624Z,5.10
2019-04-27T14:47:59.900Z,2.10
2019-04-27T14:58:40.216Z,3.90
2019-04-27T15:09:18.030Z,2.50
2019-04-27T15:19:52.735Z,3.50
2019-04-27T15:30:35.157Z,2.20
2019-04-27T15:41:08.840Z,4.10
2019-04-27T15:51:44.347Z,3.30
2019-04-27T16:02:25.889Z,2.80
2019-04-27T16:13:07.267Z,2.30
2019-04-27T16:23:48.074Z,3.10
2019-04-27T16:34:32.968Z,8.00
2019-04-27T16:45:09.975Z,7.20
2019-04-27T16:55:45.118Z,6.40
2019-04-27T17:06:25.949Z,6.60
2019-04-27T17:17:10.693Z,6.80
2019-04-27T17:27:48.138Z,9.50
2019-04-27T17:38:25.924Z,7.90
2019-04-27T17:49:04.958Z,5.40
2019-04-27T17:59:42.377Z,10.10
2019-04-27T18:10:22.709Z,9.50
2019-04-27T18:20:55.083Z,10.10
2019-04-27T18:31:33.999Z,9.00
2019-04-27T18:42:13.278Z,10.40
2019-04-27T18:52:47.514Z,12.40
2019-04-27T19:03:18.422Z,12.60
2019-04-27T19:13:53.985Z,12.00
2019-04-27T19:24:32.792Z,14.40
2019-04-27T19:35:10.338Z,13.90
2019-04-27T19:45:49.381Z,30.50
2019-04-27T19:56:28.665Z,11.90
2019-04-27T20:07:06.111Z,11.30
2019-04-27T20:17:38.030Z,17.40
2019-04-27T20:28:12.228Z,14.40
2019-04-27T20:38:50.936Z,15.60
2019-04-27T20:49:29.948Z,14.70
2019-04-27T21:00:06.069Z,12.50
2019-04-27T21:10:43.039Z,20.10
2019-04-27T21:21:23.523Z,15.40
2019-04-27T21:32:02.310Z,15.00
2019-04-27T21:42:43.430Z,12.50
2019-04-27T21:53:23.446Z,13.90
2019-04-27T22:04:04.476Z,14.60
2019-04-27T22:14:45.736Z,14.40
2019-04-27T22:25:23.343Z,13.90
2019-04-27T22:35:56.059Z,13.10
2019-04-27T22:46:33.072Z,14.60
2019-04-27T22:57:11.339Z,17.90
2019-04-27T23:07:52.362Z,13.30
2019-04-27T23:18:37.452Z,16.10
2019-04-27T23:29:17.088Z,18.30
2019-04-27T23:39:53.597Z,15.10
2019-04-27T23:50:34.149Z,12.50
